PWSweather.com
Personal Weather Stations
Station Observations
COONRAPIDS
Minneapolis, MN 55433

Minneapolis, MN 55433

Lat: 45.187721, Lon: -93.36828

Elevation: 898

Station Type: Davis Vantage Pro 2

High Low Average
Temperature 87.6°F30.9°C 62.9°F17.2°C 74.7°F23.7°C
Dew Point 66.2°F19.0°C 52.4°F11.3°C 59.3°F15.2°C
Winds 2.3 mph 3.7 kmh Calm Calm Calm SSWCalm SSW
Wind Gusts 8.1 mph13.0 kmh -- 1.0 mph1.6 kmh
Humidity 87% 30% 62%
Pressure 30.02 in1016.6 mb 29.92 in1013.2 mb -
Precipitation 0.01 in0.3 mm - -
Hour Temp Dew Point Humidity Winds Wind Gusts Pressure Precip Precip Rate Daily Precip Total
12:00 AM 69.9°F21.1°C 60.5°F15.8°C 72% Calm Calm -- 30.01 in1016.3 mb - 0.00 in0.0 mm 0.00 in0.0 mm
12:10 AM 69.5°F20.8°C 60.5°F15.8°C 73% Calm Calm -- 30.01 in1016.3 mb - 0.00 in0.0 mm 0.00 in0.0 mm
12:20 AM 69.2°F20.7°C 60.2°F15.7°C 73% Calm Calm -- 30.01 in1016.3 mb - 0.00 in0.0 mm 0.00 in0.0 mm
12:30 AM 69.1°F20.6°C 60.5°F15.8°C 74% Calm Calm -- 30.02 in1016.6 mb - 0.00 in0.0 mm 0.00 in0.0 mm
12:40 AM 68.9°F20.5°C 60.3°F15.7°C 74% Calm Calm -- 30.02 in1016.6 mb - 0.00 in0.0 mm 0.00 in0.0 mm
12:50 AM 68.6°F20.3°C 60.4°F15.8°C 75% Calm Calm -- 30.02 in1016.6 mb - 0.00 in0.0 mm 0.00 in0.0 mm
01:00 AM 68.4°F20.2°C 60.2°F15.7°C 75% Calm Calm -- 30.01 in1016.3 mb - 0.00 in0.0 mm 0.00 in0.0 mm
01:10 AM 68.2°F20.1°C 60.4°F15.8°C 76% Calm Calm 1.2 mph1.9 kmh 30.02 in1016.6 mb - 0.00 in0.0 mm 0.00 in0.0 mm
01:20 AM 67.9°F19.9°C 60.4°F15.8°C 77% Calm Calm -- 30.01 in1016.3 mb - 0.00 in0.0 mm 0.00 in0.0 mm
01:30 AM 67.4°F19.7°C 60.3°F15.7°C 78% Calm Calm -- 30.01 in1016.3 mb - 0.00 in0.0 mm 0.00 in0.0 mm
01:40 AM 66.9°F19.4°C 60.2°F15.7°C 79% Calm Calm -- 30.01 in1016.3 mb - 0.00 in0.0 mm 0.00 in0.0 mm
01:50 AM 66.4°F19.1°C 60.0°F15.6°C 80% Calm Calm -- 30.01 in1016.3 mb - 0.00 in0.0 mm 0.00 in0.0 mm
02:00 AM 65.7°F18.7°C 60.1°F15.6°C 82% Calm Calm -- 30.00 in1015.9 mb - 0.00 in0.0 mm 0.00 in0.0 mm
02:10 AM 65.2°F18.4°C 59.6°F15.3°C 82% Calm Calm -- 30.00 in1015.9 mb - 0.00 in0.0 mm 0.00 in0.0 mm
02:20 AM 64.8°F18.2°C 59.5°F15.3°C 83% Calm Calm -- 29.99 in1015.6 mb - 0.00 in0.0 mm 0.00 in0.0 mm
02:30 AM 64.5°F18.1°C 59.3°F15.2°C 83% Calm Calm -- 30.00 in1015.9 mb - 0.00 in0.0 mm 0.00 in0.0 mm
02:40 AM 64.6°F18.1°C 59.6°F15.3°C 84% Calm Calm -- 29.99 in1015.6 mb - 0.00 in0.0 mm 0.00 in0.0 mm
02:50 AM 64.3°F17.9°C 59.4°F15.2°C 84% Calm Calm -- 29.99 in1015.6 mb - 0.00 in0.0 mm 0.00 in0.0 mm
03:00 AM 64.1°F17.8°C 59.2°F15.1°C 84% Calm Calm -- 29.99 in1015.6 mb - 0.00 in0.0 mm 0.00 in0.0 mm
03:10 AM 63.8°F17.7°C 59.2°F15.1°C 85% Calm Calm -- 29.99 in1015.6 mb - 0.00 in0.0 mm 0.00 in0.0 mm
03:20 AM 63.4°F17.4°C 58.8°F14.9°C 85% Calm Calm -- 29.99 in1015.6 mb - 0.00 in0.0 mm 0.00 in0.0 mm
03:30 AM 63.1°F17.3°C 58.8°F14.9°C 86% Calm Calm -- 29.99 in1015.6 mb - 0.00 in0.0 mm 0.00 in0.0 mm
03:40 AM 62.9°F17.2°C 58.6°F14.8°C 86% Calm Calm -- 30.00 in1015.9 mb - 0.00 in0.0 mm 0.00 in0.0 mm
03:50 AM 62.9°F17.2°C 58.6°F14.8°C 86% Calm Calm -- 30.00 in1015.9 mb - 0.00 in0.0 mm 0.00 in0.0 mm
04:00 AM 63.0°F17.2°C 59.1°F15.1°C 87% Calm Calm -- 30.00 in1015.9 mb - 0.00 in0.0 mm 0.00 in0.0 mm
04:10 AM 63.2°F17.3°C 58.9°F14.9°C 86% Calm Calm -- 30.01 in1016.3 mb - 0.00 in0.0 mm 0.00 in0.0 mm
04:20 AM 63.3°F17.4°C 59.3°F15.2°C 87% Calm Calm -- 30.01 in1016.3 mb - 0.00 in0.0 mm 0.00 in0.0 mm
04:30 AM 63.4°F17.4°C 59.1°F15.1°C 86% Calm Calm -- 30.01 in1016.3 mb - 0.00 in0.0 mm 0.00 in0.0 mm
04:40 AM 63.4°F17.4°C 58.8°F14.9°C 85% Calm Calm -- 30.01 in1016.3 mb - 0.00 in0.0 mm 0.00 in0.0 mm
04:50 AM 63.3°F17.4°C 58.8°F14.9°C 85% Calm Calm -- 30.01 in1016.3 mb - 0.00 in0.0 mm 0.00 in0.0 mm
05:00 AM 63.2°F17.3°C 58.6°F14.8°C 85% Calm Calm -- 30.02 in1016.6 mb - 0.00 in0.0 mm 0.00 in0.0 mm
05:10 AM 63.3°F17.4°C 58.7°F14.8°C 85% Calm Calm -- 30.01 in1016.3 mb - 0.00 in0.0 mm 0.00 in0.0 mm
05:20 AM 63.7°F17.6°C 59.1°F15.1°C 85% Calm Calm -- 30.01 in1016.3 mb - 0.00 in0.0 mm 0.00 in0.0 mm
05:30 AM 64.0°F17.8°C 59.1°F15.1°C 84% Calm Calm -- 30.01 in1016.3 mb - 0.00 in0.0 mm 0.00 in0.0 mm
05:40 AM 64.5°F18.1°C 59.2°F15.1°C 83% Calm Calm -- 30.01 in1016.3 mb - 0.00 in0.0 mm 0.00 in0.0 mm
05:50 AM 65.2°F18.4°C 59.6°F15.3°C 82% Calm Calm -- 30.01 in1016.3 mb - 0.00 in0.0 mm 0.00 in0.0 mm
06:00 AM 65.9°F18.8°C 59.6°F15.3°C 80% Calm Calm -- 30.01 in1016.3 mb - 0.00 in0.0 mm 0.00 in0.0 mm
06:10 AM 66.6°F19.2°C 59.5°F15.3°C 78% Calm Calm -- 30.00 in1015.9 mb - 0.00 in0.0 mm 0.00 in0.0 mm
06:20 AM 67.3°F19.6°C 59.8°F15.4°C 77% Calm Calm -- 30.00 in1015.9 mb - 0.00 in0.0 mm 0.00 in0.0 mm
06:30 AM 67.7°F19.8°C 59.9°F15.5°C 76% Calm Calm -- 30.00 in1015.9 mb - 0.00 in0.0 mm 0.00 in0.0 mm
06:40 AM 68.1°F20.1°C 59.9°F15.5°C 75% Calm Calm -- 30.00 in1015.9 mb - 0.00 in0.0 mm 0.00 in0.0 mm
06:50 AM 68.6°F20.3°C 59.6°F15.3°C 73% Calm Calm 2.3 mph3.7 kmh 30.00 in1015.9 mb - 0.00 in0.0 mm 0.00 in0.0 mm
07:00 AM 69.0°F20.6°C 60.0°F15.6°C 73% Calm Calm 1.2 mph1.9 kmh 30.00 in1015.9 mb - 0.00 in0.0 mm 0.00 in0.0 mm
07:10 AM 69.3°F20.7°C 60.3°F15.7°C 73% Calm Calm 2.3 mph3.7 kmh 30.00 in1015.9 mb - 0.00 in0.0 mm 0.00 in0.0 mm
07:20 AM 69.7°F20.9°C 59.9°F15.5°C 71% Calm Calm 2.3 mph3.7 kmh 30.00 in1015.9 mb - 0.00 in0.0 mm 0.00 in0.0 mm
07:30 AM 70.5°F21.4°C 60.2°F15.7°C 70% Calm Calm -- 30.00 in1015.9 mb - 0.00 in0.0 mm 0.00 in0.0 mm
07:40 AM 71.2°F21.8°C 60.5°F15.8°C 69% Calm Calm -- 29.99 in1015.6 mb - 0.00 in0.0 mm 0.00 in0.0 mm
07:50 AM 71.9°F22.2°C 60.8°F16.0°C 68% 1.2 mph W1.9 kmh W 4.6 mph7.4 kmh 29.99 in1015.6 mb - 0.00 in0.0 mm 0.00 in0.0 mm
08:00 AM 72.4°F22.4°C 61.2°F16.2°C 68% Calm Calm -- 29.99 in1015.6 mb - 0.00 in0.0 mm 0.00 in0.0 mm
08:10 AM 72.6°F22.6°C 61.4°F16.3°C 68% Calm Calm -- 29.99 in1015.6 mb - 0.00 in0.0 mm 0.00 in0.0 mm
08:20 AM 73.3°F22.9°C 62.1°F16.7°C 68% 2.3 mph WSW3.7 kmh WSW 3.5 mph5.6 kmh 29.99 in1015.6 mb - 0.00 in0.0 mm 0.00 in0.0 mm
08:30 AM 73.5°F23.1°C 61.9°F16.6°C 67% Calm Calm -- 29.98 in1015.2 mb - 0.00 in0.0 mm 0.00 in0.0 mm
08:40 AM 73.6°F23.1°C 62.0°F16.7°C 67% 2.3 mph WSW3.7 kmh WSW 2.3 mph3.7 kmh 29.98 in1015.2 mb - 0.00 in0.0 mm 0.00 in0.0 mm
08:50 AM 74.0°F23.3°C 62.3°F16.8°C 67% 1.2 mph WSW1.9 kmh WSW 5.8 mph9.3 kmh 29.98 in1015.2 mb - 0.00 in0.0 mm 0.00 in0.0 mm
09:00 AM 74.4°F23.6°C 62.7°F17.1°C 67% 2.3 mph WSW3.7 kmh WSW 4.6 mph7.4 kmh 29.98 in1015.2 mb - 0.00 in0.0 mm 0.00 in0.0 mm
09:10 AM 75.1°F23.9°C 63.4°F17.4°C 67% 1.2 mph SW1.9 kmh SW 3.5 mph5.6 kmh 29.98 in1015.2 mb - 0.00 in0.0 mm 0.00 in0.0 mm
09:20 AM 75.7°F24.3°C 63.5°F17.5°C 66% Calm Calm -- 29.98 in1015.2 mb - 0.00 in0.0 mm 0.00 in0.0 mm
09:30 AM 76.0°F24.4°C 63.4°F17.4°C 65% Calm Calm 1.2 mph1.9 kmh 29.98 in1015.2 mb - 0.00 in0.0 mm 0.00 in0.0 mm
09:40 AM 76.8°F24.9°C 64.2°F17.9°C 65% Calm Calm 3.5 mph5.6 kmh 29.97 in1014.9 mb - 0.00 in0.0 mm 0.00 in0.0 mm
09:50 AM 77.3°F25.2°C 64.6°F18.1°C 65% Calm Calm -- 29.97 in1014.9 mb - 0.00 in0.0 mm 0.00 in0.0 mm
10:00 AM 77.8°F25.4°C 64.2°F17.9°C 63% 1.2 mph W1.9 kmh W 3.5 mph5.6 kmh 29.97 in1014.9 mb - 0.00 in0.0 mm 0.00 in0.0 mm
10:10 AM 78.6°F25.9°C 64.5°F18.1°C 62% 1.2 mph WSW1.9 kmh WSW 3.5 mph5.6 kmh 29.97 in1014.9 mb - 0.00 in0.0 mm 0.00 in0.0 mm
10:20 AM 79.2°F26.2°C 64.6°F18.1°C 61% 2.3 mph W3.7 kmh W 5.8 mph9.3 kmh 29.97 in1014.9 mb - 0.00 in0.0 mm 0.00 in0.0 mm
10:30 AM 79.9°F26.6°C 65.2°F18.4°C 61% 2.3 mph W3.7 kmh W 4.6 mph7.4 kmh 29.97 in1014.9 mb - 0.00 in0.0 mm 0.00 in0.0 mm
10:40 AM 79.9°F26.6°C 65.2°F18.4°C 61% 1.2 mph WSW1.9 kmh WSW 3.5 mph5.6 kmh 29.97 in1014.9 mb - 0.00 in0.0 mm 0.00 in0.0 mm
10:50 AM 79.5°F26.4°C 64.4°F18.0°C 60% 2.3 mph W3.7 kmh W 3.5 mph5.6 kmh 29.97 in1014.9 mb - 0.00 in0.0 mm 0.00 in0.0 mm
11:00 AM 80.0°F26.7°C 65.8°F18.8°C 62% Calm Calm 1.2 mph1.9 kmh 29.97 in1014.9 mb - 0.00 in0.0 mm 0.00 in0.0 mm
11:10 AM 80.6°F27.0°C 65.0°F18.3°C 59% 1.2 mph W1.9 kmh W 4.6 mph7.4 kmh 29.97 in1014.9 mb - 0.00 in0.0 mm 0.00 in0.0 mm
11:20 AM 80.9°F27.2°C 65.2°F18.4°C 59% Calm Calm 3.5 mph5.6 kmh 29.97 in1014.9 mb - 0.00 in0.0 mm 0.00 in0.0 mm
11:30 AM 81.9°F27.7°C 66.2°F19.0°C 59% Calm Calm -- 29.96 in1014.6 mb - 0.00 in0.0 mm 0.00 in0.0 mm
11:40 AM 82.6°F28.1°C 64.8°F18.2°C 55% Calm Calm 1.2 mph1.9 kmh 29.96 in1014.6 mb - 0.00 in0.0 mm 0.00 in0.0 mm
11:50 AM 82.5°F28.1°C 65.2°F18.4°C 56% 2.3 mph W3.7 kmh W 4.6 mph7.4 kmh 29.96 in1014.6 mb - 0.00 in0.0 mm 0.00 in0.0 mm
12:00 PM 82.7°F28.2°C 65.4°F18.6°C 56% Calm Calm -- 29.95 in1014.2 mb - 0.00 in0.0 mm 0.00 in0.0 mm
12:10 PM 83.2°F28.4°C 64.3°F17.9°C 53% 2.3 mph W3.7 kmh W 5.8 mph9.3 kmh 29.95 in1014.2 mb - 0.00 in0.0 mm 0.00 in0.0 mm
12:20 PM 83.5°F28.6°C 61.1°F16.2°C 47% 1.2 mph NNE1.9 kmh NNE 2.3 mph3.7 kmh 29.95 in1014.2 mb - 0.00 in0.0 mm 0.00 in0.0 mm
12:30 PM 84.2°F29.0°C 61.8°F16.6°C 47% 1.2 mph W1.9 kmh W 5.8 mph9.3 kmh 29.95 in1014.2 mb - 0.00 in0.0 mm 0.00 in0.0 mm
12:40 PM 83.8°F28.8°C 60.2°F15.7°C 45% Calm Calm -- 29.95 in1014.2 mb - 0.00 in0.0 mm 0.00 in0.0 mm
12:50 PM 84.3°F29.1°C 61.3°F16.3°C 46% 1.2 mph W1.9 kmh W 1.2 mph1.9 kmh 29.95 in1014.2 mb - 0.00 in0.0 mm 0.00 in0.0 mm
01:00 PM 85.0°F29.4°C 60.6°F15.9°C 44% 1.2 mph WNW1.9 kmh WNW 1.2 mph1.9 kmh 29.95 in1014.2 mb - 0.00 in0.0 mm 0.00 in0.0 mm
01:10 PM 85.0°F29.4°C 60.7°F15.9°C 44% Calm Calm -- 29.95 in1014.2 mb - 0.00 in0.0 mm 0.00 in0.0 mm
01:20 PM 85.8°F29.9°C 60.1°F15.6°C 42% Calm Calm -- 29.95 in1014.2 mb - 0.00 in0.0 mm 0.00 in0.0 mm
01:30 PM 85.8°F29.9°C 56.5°F13.6°C 37% 1.2 mph NW1.9 kmh NW 1.2 mph1.9 kmh 29.95 in1014.2 mb - 0.00 in0.0 mm 0.00 in0.0 mm
01:40 PM 85.2°F29.6°C 57.4°F14.1°C 39% Calm Calm 1.2 mph1.9 kmh 29.94 in1013.9 mb - 0.00 in0.0 mm 0.00 in0.0 mm
01:50 PM 86.0°F30.0°C 57.4°F14.1°C 38% Calm Calm 2.3 mph3.7 kmh 29.94 in1013.9 mb - 0.00 in0.0 mm 0.00 in0.0 mm
02:00 PM 86.0°F30.0°C 55.1°F12.8°C 35% 1.2 mph WNW1.9 kmh WNW 2.3 mph3.7 kmh 29.94 in1013.9 mb - 0.00 in0.0 mm 0.00 in0.0 mm
02:10 PM 85.2°F29.6°C 53.7°F12.1°C 34% Calm Calm 3.5 mph5.6 kmh 29.94 in1013.9 mb - 0.00 in0.0 mm 0.00 in0.0 mm
02:20 PM 86.3°F30.2°C 55.4°F13.0°C 35% Calm Calm 1.2 mph1.9 kmh 29.93 in1013.5 mb - 0.00 in0.0 mm 0.00 in0.0 mm
02:30 PM 87.3°F30.7°C 53.8°F12.1°C 32% Calm Calm -- 29.93 in1013.5 mb - 0.00 in0.0 mm 0.00 in0.0 mm
02:40 PM 87.5°F30.8°C 54.0°F12.2°C 32% Calm Calm -- 29.93 in1013.5 mb - 0.00 in0.0 mm 0.00 in0.0 mm
02:50 PM 87.6°F30.9°C 54.1°F12.3°C 32% 1.2 mph NW1.9 kmh NW 2.3 mph3.7 kmh 29.93 in1013.5 mb - 0.00 in0.0 mm 0.00 in0.0 mm
03:00 PM 87.5°F30.8°C 53.1°F11.7°C 31% Calm Calm -- 29.93 in1013.5 mb - 0.00 in0.0 mm 0.00 in0.0 mm
03:10 PM 87.6°F30.9°C 52.4°F11.3°C 30% 1.2 mph NE1.9 kmh NE 4.6 mph7.4 kmh 29.93 in1013.5 mb - 0.00 in0.0 mm 0.00 in0.0 mm
03:20 PM 87.3°F30.7°C 53.0°F11.7°C 31% Calm Calm 1.2 mph1.9 kmh 29.92 in1013.2 mb - 0.00 in0.0 mm 0.00 in0.0 mm
03:30 PM 87.2°F30.7°C 53.7°F12.1°C 32% Calm Calm -- 29.92 in1013.2 mb - 0.00 in0.0 mm 0.00 in0.0 mm
03:40 PM 87.3°F30.7°C 54.7°F12.6°C 33% 1.2 mph NE1.9 kmh NE 3.5 mph5.6 kmh 29.92 in1013.2 mb - 0.00 in0.0 mm 0.00 in0.0 mm
03:50 PM 86.6°F30.3°C 52.4°F11.3°C 31% 1.2 mph N1.9 kmh N 4.6 mph7.4 kmh 29.92 in1013.2 mb - 0.00 in0.0 mm 0.00 in0.0 mm
04:00 PM 86.6°F30.3°C 54.9°F12.7°C 34% Calm Calm -- 29.92 in1013.2 mb - 0.00 in0.0 mm 0.00 in0.0 mm
04:10 PM 85.9°F29.9°C 55.1°F12.8°C 35% 2.3 mph N3.7 kmh N 3.5 mph5.6 kmh 29.92 in1013.2 mb - 0.00 in0.0 mm 0.00 in0.0 mm
04:20 PM 85.6°F29.8°C 54.8°F12.7°C 35% 2.3 mph N3.7 kmh N 6.9 mph11.1 kmh 29.92 in1013.2 mb - 0.00 in0.0 mm 0.00 in0.0 mm
04:30 PM 85.7°F29.8°C 55.7°F13.2°C 36% Calm Calm 3.5 mph5.6 kmh 29.92 in1013.2 mb - 0.00 in0.0 mm 0.00 in0.0 mm
04:40 PM 85.7°F29.8°C 55.7°F13.2°C 36% Calm Calm -- 29.92 in1013.2 mb - 0.00 in0.0 mm 0.00 in0.0 mm
04:50 PM 85.0°F29.4°C 56.5°F13.6°C 38% Calm Calm -- 29.93 in1013.5 mb - 0.00 in0.0 mm 0.00 in0.0 mm
05:00 PM 83.4°F28.6°C 55.1°F12.8°C 38% Calm Calm -- 29.93 in1013.5 mb - 0.00 in0.0 mm 0.00 in0.0 mm
05:10 PM 83.3°F28.5°C 55.8°F13.2°C 39% Calm Calm -- 29.93 in1013.5 mb - 0.00 in0.0 mm 0.00 in0.0 mm
05:20 PM 83.8°F28.8°C 55.5°F13.1°C 38% Calm Calm -- 29.94 in1013.9 mb - 0.00 in0.0 mm 0.00 in0.0 mm
05:30 PM 83.8°F28.8°C 56.9°F13.8°C 40% Calm Calm -- 29.93 in1013.5 mb - 0.00 in0.0 mm 0.00 in0.0 mm
05:40 PM 83.5°F28.6°C 55.9°F13.3°C 39% Calm Calm -- 29.94 in1013.9 mb - 0.00 in0.0 mm 0.00 in0.0 mm
05:50 PM 83.0°F28.3°C 56.2°F13.4°C 40% Calm Calm -- 29.94 in1013.9 mb - 0.00 in0.0 mm 0.00 in0.0 mm
06:00 PM 83.0°F28.3°C 56.9°F13.8°C 41% Calm Calm -- 29.94 in1013.9 mb - 0.00 in0.0 mm 0.00 in0.0 mm
06:10 PM 82.3°F27.9°C 56.2°F13.4°C 41% Calm Calm -- 29.95 in1014.2 mb - 0.00 in0.0 mm 0.00 in0.0 mm
06:20 PM 81.4°F27.4°C 56.8°F13.8°C 43% Calm Calm -- 29.95 in1014.2 mb - 0.00 in0.0 mm 0.00 in0.0 mm
06:30 PM 80.7°F27.1°C 56.7°F13.7°C 44% Calm Calm 1.2 mph1.9 kmh 29.95 in1014.2 mb - 0.00 in0.0 mm 0.00 in0.0 mm
06:40 PM 80.0°F26.7°C 56.1°F13.4°C 44% Calm Calm -- 29.95 in1014.2 mb - 0.00 in0.0 mm 0.00 in0.0 mm
06:50 PM 79.4°F26.3°C 56.3°F13.5°C 45% Calm Calm -- 29.95 in1014.2 mb - 0.00 in0.0 mm 0.00 in0.0 mm
07:00 PM 78.9°F26.1°C 55.8°F13.2°C 45% Calm Calm -- 29.95 in1014.2 mb - 0.00 in0.0 mm 0.00 in0.0 mm
07:10 PM 78.4°F25.8°C 55.9°F13.3°C 46% Calm Calm -- 29.95 in1014.2 mb - 0.00 in0.0 mm 0.00 in0.0 mm
07:20 PM 77.8°F25.4°C 56.0°F13.3°C 47% Calm Calm -- 29.95 in1014.2 mb - 0.00 in0.0 mm 0.00 in0.0 mm
07:30 PM 77.2°F25.1°C 56.0°F13.3°C 48% Calm Calm -- 29.95 in1014.2 mb - 0.00 in0.0 mm 0.00 in0.0 mm
07:40 PM 76.4°F24.7°C 56.4°F13.6°C 50% Calm Calm -- 29.96 in1014.6 mb - 0.00 in0.0 mm 0.00 in0.0 mm
07:50 PM 75.5°F24.2°C 56.1°F13.4°C 51% Calm Calm -- 29.96 in1014.6 mb - 0.00 in0.0 mm 0.00 in0.0 mm
08:00 PM 74.6°F23.7°C 56.9°F13.8°C 54% Calm Calm -- 29.96 in1014.6 mb - 0.00 in0.0 mm 0.00 in0.0 mm
08:10 PM 73.9°F23.3°C 57.2°F14.0°C 56% Calm Calm -- 29.96 in1014.6 mb - 0.00 in0.0 mm 0.00 in0.0 mm
08:20 PM 73.2°F22.9°C 57.1°F13.9°C 57% Calm Calm -- 29.96 in1014.6 mb - 0.00 in0.0 mm 0.00 in0.0 mm
08:30 PM 72.6°F22.6°C 57.4°F14.1°C 59% Calm Calm -- 29.96 in1014.6 mb - 0.00 in0.0 mm 0.00 in0.0 mm
08:40 PM 72.0°F22.2°C 56.9°F13.8°C 59% Calm Calm -- 29.97 in1014.9 mb - 0.00 in0.0 mm 0.00 in0.0 mm
08:50 PM 71.6°F22.0°C 56.5°F13.6°C 59% Calm Calm -- 29.97 in1014.9 mb - 0.00 in0.0 mm 0.00 in0.0 mm
09:00 PM 71.2°F21.8°C 57.1°F13.9°C 61% Calm Calm -- 29.97 in1014.9 mb - 0.00 in0.0 mm 0.00 in0.0 mm
09:10 PM 71.0°F21.7°C 57.3°F14.1°C 62% Calm Calm -- 29.98 in1015.2 mb - 0.00 in0.0 mm 0.00 in0.0 mm
09:20 PM 70.8°F21.6°C 57.6°F14.2°C 63% Calm Calm -- 29.98 in1015.2 mb - 0.00 in0.0 mm 0.00 in0.0 mm
09:30 PM 71.2°F21.8°C 57.9°F14.4°C 63% Calm Calm -- 29.99 in1015.6 mb - 0.00 in0.0 mm 0.00 in0.0 mm
09:40 PM 72.6°F22.6°C 60.2°F15.7°C 65% Calm Calm 4.6 mph7.4 kmh 30.01 in1016.3 mb - 0.00 in0.0 mm 0.00 in0.0 mm
09:50 PM 72.2°F22.3°C 60.7°F15.9°C 67% 1.2 mph WNW1.9 kmh WNW 8.1 mph13.0 kmh 30.01 in1016.3 mb - 0.00 in0.0 mm 0.00 in0.0 mm
10:00 PM 70.6°F21.4°C 61.6°F16.4°C 73% 1.2 mph W1.9 kmh W 3.5 mph5.6 kmh 30.01 in1016.3 mb - 0.00 in0.0 mm 0.00 in0.0 mm
10:10 PM 69.4°F20.8°C 61.5°F16.4°C 76% Calm Calm -- 30.00 in1015.9 mb - 0.01 in0.3 mm 0.01 in0.3 mm
10:20 PM 68.9°F20.5°C 61.4°F16.3°C 77% Calm Calm -- 30.00 in1015.9 mb - 0.00 in0.0 mm 0.01 in0.3 mm
10:30 PM 68.5°F20.3°C 61.0°F16.1°C 77% Calm Calm -- 30.00 in1015.9 mb - 0.00 in0.0 mm 0.01 in0.3 mm
10:40 PM 68.4°F20.2°C 60.9°F16.1°C 77% Calm Calm -- 30.00 in1015.9 mb - 0.00 in0.0 mm 0.01 in0.3 mm
10:50 PM 68.5°F20.3°C 60.6°F15.9°C 76% Calm Calm -- 29.99 in1015.6 mb - 0.00 in0.0 mm 0.01 in0.3 mm
11:00 PM 68.6°F20.3°C 60.7°F15.9°C 76% Calm Calm -- 29.99 in1015.6 mb - 0.00 in0.0 mm 0.01 in0.3 mm
11:10 PM 68.7°F20.4°C 60.8°F16.0°C 76% Calm Calm -- 29.99 in1015.6 mb - 0.00 in0.0 mm 0.01 in0.3 mm
11:20 PM 68.6°F20.3°C 60.8°F16.0°C 76% Calm Calm 1.2 mph1.9 kmh 29.99 in1015.6 mb - 0.00 in0.0 mm 0.01 in0.3 mm
11:30 PM 68.6°F20.3°C 60.7°F15.9°C 76% Calm Calm -- 29.99 in1015.6 mb - 0.00 in0.0 mm 0.01 in0.3 mm
11:40 PM 68.6°F20.3°C 60.7°F15.9°C 76% Calm Calm -- 29.99 in1015.6 mb - 0.00 in0.0 mm 0.01 in0.3 mm
11:50 PM 68.5°F20.3°C 61.0°F16.1°C 77% Calm Calm -- 29.99 in1015.6 mb - 0.00 in0.0 mm 0.01 in0.3 mm